Station: Naracoorte

  Atmospheric Gas Attenuation - ITU Rec 676-11   --------------- db/100km ---------------
Date Time Temp RH % AH g/m3 Dew Point Wind Direction Speed kph Gust kph Barometer mB Rainfall Since 9am 24GHz 47GHz 76GHz 122GHz 134GHz 241GHz
17 02:10 6.4 88 6.56 4.6 13 17 1022.6 0 15.5 25.0 35.4 92.5 80.3 274.0
17 02:00 6.5 88 6.6 4.7 17 22 1022.7 0 15.6 25.1 35.5 92.8 80.8 275.6
17 01:50 6.3 88 6.52 4.5 19 20 1022.5 0 15.5 25.0 35.3 92.2 79.9 272.4
17 01:40 6.3 88 6.52 4.5 17 19 1022.6 0 15.5 25.0 35.3 92.2 79.9 272.4
17 01:30 6.3 88 6.52 4.5 17 22 1022.7 0 15.5 25.0 35.3 92.2 79.9 272.4
17 01:20 6.4 89 6.64 4.7 15 17 1022.7 0 15.7 25.2 35.7 93.4 81.4 277.8
17 01:10 6.4 89 6.64 4.7 13 15 1022.7 0 15.7 25.2 35.7 93.4 81.4 277.8
17 01:00 6.4 88 6.56 4.6 17 20 1022.8 0 15.5 25.0 35.4 92.5 80.3 274.0
17 00:50 6.7 88 6.69 4.9 17 20 1022.7 0 15.8 25.2 35.8 93.6 81.8 279.1
17 00:40 6.8 89 6.81 5.1 19 20 1022.7 0 16.1 25.3 36.3 94.8 83.3 284.5
17 00:30 6.9 88 6.78 5.1 19 22 1022.9 0 16.0 25.3 36.1 94.4 82.8 282.8
17 00:20 7.1 88 6.87 5.3 17 20 1022.9 0 16.2 25.3 36.4 95.1 83.8 286.3
17 00:10 7.3 88 6.96 5.4 19 20 1022.9 0 16.4 25.4 36.7 95.9 84.8 289.9
17 00:00 7.3 88 6.96 5.4 17 20 1023.1 0 16.4 25.4 36.7 95.9 84.8 290.0
16 23:50 7.6 88 7.09 5.7 17 20 1023.2 0 16.6 25.6 37.1 97.0 86.3 295.1
16 23:40 7.7 88 7.14 5.8 17 19 1023.3 0 16.7 25.6 37.2 97.4 86.9 297.1
16 23:30 7.8 88 7.18 5.9 19 20 1023.4 0 16.8 25.7 37.4 97.7 87.3 298.7
16 23:20 8 88 7.28 6.1 19 22 1023.4 0 17.0 25.8 37.7 98.6 88.4 302.7
16 23:10 8.3 88 7.42 6.4 17 19 1023.5 0 17.3 25.9 38.1 99.8 90.0 308.3
16 23:00 8.6 88 7.56 6.7 19 20 1023.7 0 17.6 26.1 38.6 101.0 91.6 313.9
16 22:50 8.7 89 7.7 7 19 20 1023.6 0 17.9 26.3 39.1 102.4 93.4 320.2
16 22:40 8.4 90 7.64 6.9 13 15 1023.8 0 17.8 26.3 39.0 102.2 93.0 318.6
16 22:30 8.5 90 7.69 7 13 17 1023.9 0 17.9 26.4 39.2 102.6 93.5 320.6
16 22:20 8.5 91 7.77 7.1 13 15 1023.6 0 18.1 26.5 39.5 103.5 94.6 324.4
16 22:10 8.6 91 7.82 7.2 11 13 1023.6 0 18.2 26.5 39.7 103.9 95.2 326.4
16 22:00 8.7 93 8.05 7.6 11 17 1023.7 0 18.6 26.9 40.6 106.4 98.3 337.3
16 21:50 8.1 93 7.74 7 9 9 1023.7 0 18.0 26.6 39.6 103.7 94.7 324.7
16 21:40 7.4 95 7.56 6.7 9 9 1023.7 0 17.6 26.5 39.2 102.6 93.1 318.8
16 21:30 5.5 94 6.61 4.6 7 9 1023.9 0 15.7 25.4 36.1 94.3 82.0 279.9
16 21:20 4.7 94 6.27 3.8 7 9 1023.8 0 15.0 25.1 35.0 91.4 78.2 266.2
16 21:10 4.6 93 6.16 3.6 6 7 1023.8 0 14.7 24.9 34.6 90.3 76.8 261.2
16 21:00 5 92 6.26 3.8 4 9 1024 0 14.9 25.0 34.8 91.0 77.7 264.7
16 20:50 5.8 93 6.67 4.8 0 0 1023.9 0 15.8 25.4 36.2 94.6 82.5 281.7
16 20:40 6.3 92 6.81 5.1 0 0 1023.8 0 16.1 25.5 36.5 95.5 83.9 286.6
16 20:30 6.5 92 6.9 5.3 0 0 1023.8 0 16.3 25.6 36.8 96.3 84.9 290.2
16 20:20 6.8 91 6.96 5.4 0 0 1023.7 0 16.4 25.6 36.9 96.6 85.4 292.0
16 20:10 7.2 92 7.23 6 0 0 1023.6 0 16.9 26.0 37.9 99.1 88.7 303.5
16 20:00 6.7 91 6.92 5.3 0 0 1023.7 0 16.3 25.6 36.8 96.3 85.0 290.4
16 19:50 7 91 7.05 5.6 0 0 1023.7 0 16.6 25.7 37.2 97.3 86.4 295.6
16 19:40 7.3 91 7.19 5.9 0 0 1023.7 0 16.9 25.9 37.7 98.5 88.0 301.2
16 19:30 7.3 90 7.11 5.8 0 0 1023.7 0 16.7 25.7 37.3 97.6 86.9 297.3
16 19:20 7.4 90 7.16 5.9 0 0 1023.5 0 16.8 25.8 37.5 98.0 87.5 299.3
16 19:10 7.8 91 7.43 6.4 0 0 1023.5 0 17.3 26.1 38.4 100.5 90.8 310.8
16 19:00 7.7 89 7.22 6 0 0 1023.5 0 16.9 25.8 37.6 98.3 88.0 301.0
16 18:50 8.1 90 7.49 6.6 0 0 1023.3 0 17.5 26.1 38.5 100.8 91.2 312.4
16 18:40 7.7 87 7.06 5.7 0 0 1023.2 0 16.6 25.5 36.9 96.5 85.8 293.3
16 18:30 8.6 88 7.56 6.7 0 0 1023.2 0 17.6 26.1 38.6 100.9 91.6 313.8
16 18:20 7.9 87 7.15 5.9 0 0 1023.1 0 16.7 25.6 37.2 97.3 86.8 296.8
16 18:10 8.5 86 7.35 6.3 0 0 1023.1 0 17.1 25.8 37.7 98.7 88.8 304.1
16 18:00 9.2 85 7.59 6.8 0 0 1023.2 0 17.6 26.0 38.4 100.5 91.3 312.8
16 17:50 10 85 7.99 7.6 0 0 1023.1 0 18.5 26.4 39.7 103.9 95.8 328.6
16 17:40 9.6 83 7.61 6.9 4 6 1023 0 17.7 25.9 38.3 100.2 91.1 312.1
16 17:30 10.7 82 8.06 7.8 6 6 1022.9 0 18.6 26.3 39.6 103.7 95.8 329.0
16 17:20 10.9 80 7.96 7.6 6 6 1022.8 0 18.3 26.1 39.1 102.3 94.2 323.4
16 17:10 11.4 79 8.11 7.9 6 6 1022.8 0 18.6 26.2 39.4 103.3 95.6 328.4
16 17:00 12 78 8.31 8.3 6 7 1022.9 0 19.0 26.3 40.0 104.7 97.6 335.3
16 16:50 12.7 77 8.57 8.8 6 7 1022.8 0 19.6 26.5 40.7 106.6 100.2 344.5
16 16:40 13.1 77 8.79 9.2 7 7 1022.8 0 20.0 26.8 41.4 108.5 102.6 353.1
16 16:30 13.2 77 8.84 9.3 7 7 1022.9 0 20.1 26.8 41.5 108.9 103.2 355.1
16 16:20 13.4 76 8.84 9.3 7 7 1022.9 0 20.1 26.8 41.4 108.6 102.9 354.2
16 16:10 13.2 74 8.5 8.7 7 7 1022.9 0 19.4 26.3 40.1 105.2 98.6 339.1
16 16:00 13.7 72 8.53 8.7 9 11 1023 0 19.4 26.2 40.0 104.9 98.4 338.4
16 15:50 14.5 69 8.58 8.9 9 11 1022.9 0 19.5 26.0 39.8 104.3 98.0 337.2
16 15:40 14.9 69 8.79 9.3 9 9 1022.9 0 19.9 26.2 40.4 106.0 100.3 345.2
16 15:30 15.1 70 9.03 9.7 9 11 1022.9 0 20.4 26.6 41.3 108.3 103.2 355.4
16 15:20 14.9 68 8.67 9.1 9 9 1022.8 0 19.7 26.0 40.0 104.7 98.7 339.6
16 15:10 15.3 68 8.88 9.4 7 11 1022.8 0 20.1 26.3 40.6 106.4 101.0 347.5
16 15:00 15.5 68 8.99 9.6 7 19 1022.9 0 20.3 26.4 40.9 107.4 102.2 351.7
16 14:50 15.8 66 8.88 9.5 0 0 1022.9 0 20.1 26.1 40.3 105.8 100.3 345.4
16 14:40 15.7 66 8.83 9.4 0 0 1022.9 0 20.0 26.1 40.2 105.4 99.8 343.5
16 14:30 15.2 69 8.96 9.6 4 7 1023 0 20.3 26.4 41.0 107.5 102.2 351.7
16 14:20 14.9 69 8.79 9.3 6 7 1022.9 0 19.9 26.2 40.4 106.0 100.3 345.2
16 14:10 14.8 69 8.74 9.2 0 0 1022.9 0 19.8 26.2 40.3 105.6 99.8 343.3
16 14:00 15.1 71 9.16 9.9 0 0 1023.1 0 20.7 26.8 41.8 109.8 105.0 361.5
16 13:50 14.7 70 8.81 9.3 0 0 1023 0 20.0 26.3 40.6 106.5 100.8 347.0
16 13:40 14.7 71 8.94 9.5 0 4 1022.9 0 20.3 26.5 41.1 107.9 102.5 353.0
16 13:30 15.2 71 9.22 10 2 7 1023.1 0 20.8 26.9 42.0 110.3 105.6 363.8
16 13:20 14.2 71 8.67 9 0 6 1023 0 19.7 26.3 40.3 105.7 99.6 342.7
16 13:10 14 71 8.56 8.8 0 0 1023.1 0 19.5 26.1 40.0 104.8 98.4 338.5
16 13:00 14.1 70 8.5 8.7 0 0 1023.2 0 19.4 26.0 39.7 104.0 97.5 335.3
16 12:50 14 70 8.44 8.6 0 0 1023.3 0 19.2 26.0 39.5 103.5 96.9 333.0
16 12:40 14.5 69 8.58 8.9 0 0 1023.5 0 19.5 26.0 39.8 104.4 98.1 337.4
16 12:30 14.2 71 8.67 9 0 0 1023.7 0 19.7 26.3 40.3 105.8 99.7 342.9
16 12:20 13.4 72 8.37 8.5 0 0 1023.8 0 19.1 26.0 39.5 103.6 96.7 332.4
16 12:10 13.3 71 8.2 8.2 4 6 1024 0 18.7 25.8 38.9 101.9 94.6 325.0
16 12:00 13 72 8.17 8.1 6 9 1024.3 0 18.7 25.8 39.0 102.0 94.6 324.9
16 11:50 12.6 71 7.86 7.5 6 7 1024.3 0 18.1 25.5 37.9 99.2 91.0 312.2
16 11:40 12.6 73 8.08 7.9 7 7 1024.4 0 18.5 25.8 38.8 101.6 93.9 322.4
16 11:30 12.6 75 8.3 8.3 6 9 1024.7 0 19.0 26.2 39.7 104.0 96.9 332.8
16 11:20 12.1 74 7.94 7.6 7 9 1024.6 0 18.2 25.7 38.5 100.7 92.7 318.0
16 11:10 11.7 74 7.74 7.2 7 7 1024.7 0 17.8 25.5 37.9 99.1 90.5 310.3
16 11:00 11.6 76 7.9 7.5 7 11 1024.9 0 18.2 25.8 38.6 101.0 92.7 318.2
16 10:50 11.3 77 7.86 7.4 11 13 1024.9 0 18.1 25.9 38.6 100.9 92.6 317.6
16 10:40 11 81 8.11 7.9 7 9 1024.9 0 18.7 26.4 39.7 104.1 96.3 330.6
16 10:30 10.5 83 8.05 7.7 9 11 1025.1 0 18.6 26.4 39.7 104.1 96.1 329.9
16 10:20 10.2 85 8.09 7.8 9 11 1025.1 0 18.7 26.6 40.1 104.9 97.0 333.1
16 10:10 9.6 87 7.97 7.5 9 9 1025 0 18.4 26.5 39.9 104.4 96.1 329.9
16 10:00 8.9 87 7.62 6.9 9 11 1025.2 0 17.7 26.2 38.8 101.4 92.2 315.9
16 09:50 8.6 87 7.48 6.6 9 11 1025.1 0 17.4 26.0 38.3 100.2 90.6 310.4
16 09:40 8.6 88 7.56 6.7 7 9 1025.1 0 17.6 26.2 38.6 101.1 91.7 314.2

Last Refresh: 17-Jul-2020 02:15:17

Most of the information presented on this site is sourced from the Bureau of Meteorology.  Copyright in all material sourced from the Bureau of Meteorology resides with the Commonwealth of Australia.